Miltonvale, KS (67466)

9:22 AM CDT on October 22, 2014 (GMT -0500)
SW of Idana | Change Station
CLOSE
Current Station
Personal Weather Station
Location: Clay Center, KS
Elevation: 1298 ft
Nearby Weather Stations

Elev 1298 ft 39.33 °N, 97.28 °W | Updated 6 minutes ago

Clear
Clear
59.8 °F
Feels Like 59.8 °F
N
7.0
Wind Variable Wind from South
Gusts 11.0 mph

Today
High -- | Low -- °F
--% Chance of Precip.
Yesterday
High -- | Low -- °F
Precip. -- in
7:46 AM 6:40 PM
Waning Crescent, 2% visible
Pressure 30.05 in
Visibility 8.0 miles
Clouds Clear
Dew Point 56 °F
Humidity 87%
Rainfall 0.00 in
Snow Depth Not available.
UV 1 out of 12
Pollen 2.80 out of 12
Air Quality Not available.
Flu Activity No Activity
METAR KCNK 221355Z AUTO 15010KT 8SM CLR 14/13 A3006 RMK AO2 SLP174 T01440133

More Conditions Fewer Conditions

Pressure 30.05 in
Visibility 8.0 miles
Clouds Clear
Dew Point 56 °F
Humidity 87%
Rainfall 0.00 in
Snow Depth Not available.
UV 1 out of 12
Pollen 2.80 out of 12
Air Quality Not available.
Flu Activity No Activity
METAR KCNK 221355Z AUTO 15010KT 8SM CLR 14/13 A3006 RMK AO2 SLP174 T01440133

More Conditions Fewer Conditions

10-Day Weather Forecast

Almanac

Astronomy

Oct. 22, 2014 Rise Set
Actual Time 7:46 AM CDT 6:40 PM CDT
Civil Twilight 7:19 AM CDT 7:08 PM CDT
Nautical Twilight 6:48 AM CDT 7:39 PM CDT
Astronomical Twilight 6:17 AM CDT 8:10 PM CDT
Moon 6:30 AM CDT 6:08 PM CDT
Length of Visible Light 11h 48m
Length of Day
10h 54m
Tomorrow will be 2m 24s shorter.
Waning Crescent, 2% of the Moon is Illuminated
Today
Waning Crescent
Oct 23
New
Oct 30
First Quarter
Nov 6
Full
Nov 14
Last Quarter

Today's Extremes

State Highs State Lows

Community

WunderPhotos

Upload Photos

1,763,927 photos uploaded!

WunderBlogs® & News

Nearby

Snow Depth

Station Depth Elevation
No new snow has been reported.

Earthquake Activity

City Distance Mag. Time & Date
No recent earthquake activity has been reported nearby.
Minimum magnitude displayed is 2.5.

Coastal Water Temperatures

Place Temperature
No Stations Reporting

Nearby Weather Stations